Time;durP1;ratioP1;P1;durP2;ratioP2;P2;SDS_P1;SDS_P2;PMS_P1;PMS_P2;Temp;Humidity;BMP_temperature;BMP_pressure;BME280_temperature;BME280_humidity;BME280_pressure;Samples;Min_cycle;Max_cycle;Signal;HPM_P1;HPM_P2
2023/01/23 00:00:40;;;;;;;14.07;8.15;;;2.00;99.90;;;;;;5032548;28;20037;-93
2023/01/23 00:03:06;;;;;;;17.75;8.50;;;2.10;99.90;;;;;;5021785;28;20761;-93
2023/01/23 00:05:32;;;;;;;16.65;8.60;;;2.20;99.90;;;;;;5025805;28;20057;-93
2023/01/23 00:07:57;;;;;;;16.25;9.02;;;2.90;99.90;;;;;;5030086;28;20045;-94
2023/01/23 00:10:23;;;;;;;11.27;7.85;;;3.80;99.90;;;;;;5025174;28;20037;-93
2023/01/23 00:12:49;;;;;;;17.63;8.40;;;2.10;99.90;;;;;;5030896;28;20045;-93
2023/01/23 00:15:15;;;;;;;13.63;8.32;;;2.20;99.90;;;;;;5022002;28;20069;-92
2023/01/23 00:17:41;;;;;;;12.25;8.73;;;2.40;99.90;;;;;;5029880;28;20044;-94
2023/01/23 00:20:12;;;;;;;13.18;8.57;;;2.30;99.90;;;;;;5032560;28;20137;-93
2023/01/23 00:22:38;;;;;;;18.73;8.45;;;2.40;99.90;;;;;;5029506;28;20076;-93
2023/01/23 00:25:04;;;;;;;16.73;8.60;;;2.20;99.90;;;;;;5012152;28;20053;-93
2023/01/23 00:27:30;;;;;;;12.95;8.13;;;2.30;99.90;;;;;;5012603;28;20045;-92
2023/01/23 00:29:56;;;;;;;12.75;7.97;;;2.30;99.90;;;;;;5013003;28;20095;-93
2023/01/23 00:32:22;;;;;;;11.73;7.88;;;2.50;99.90;;;;;;5011768;28;20053;-92
2023/01/23 00:34:48;;;;;;;15.00;8.73;;;2.40;99.90;;;;;;5027648;28;20086;-92
2023/01/23 00:37:15;;;;;;;12.82;8.50;;;2.30;99.90;;;;;;5024406;28;20095;-92
2023/01/23 00:39:41;;;;;;;13.25;7.97;;;2.30;99.90;;;;;;5031947;28;20048;-93
2023/01/23 00:42:09;;;;;;;13.05;8.88;;;2.20;99.90;;;;;;5031979;28;20443;-93
2023/01/23 00:44:35;;;;;;;14.98;8.18;;;2.30;99.90;;;;;;5032762;28;20052;-92
2023/01/23 00:47:00;;;;;;;15.25;8.65;;;2.50;99.90;;;;;;5032800;28;20048;-92
2023/01/23 00:49:29;;;;;;;12.25;8.68;;;2.20;99.90;;;;;;5029808;28;20041;-92
2023/01/23 00:51:55;;;;;;;15.40;8.88;;;2.50;99.90;;;;;;5018226;28;20182;-93
2023/01/23 00:54:23;;;;;;;17.05;9.20;;;2.30;99.90;;;;;;5031130;28;20071;-94
2023/01/23 00:56:48;;;;;;;12.55;8.48;;;3.70;99.90;;;;;;5029972;28;20056;-91
2023/01/23 00:59:14;;;;;;;15.25;8.93;;;2.30;99.90;;;;;;5031975;28;20037;-94
2023/01/23 01:01:40;;;;;;;16.70;9.05;;;2.30;99.90;;;;;;5034504;28;20052;-93
2023/01/23 01:04:05;;;;;;;16.17;8.82;;;2.50;99.90;;;;;;5030761;28;20037;-92
2023/01/23 01:06:31;;;;;;;14.45;9.23;;;2.30;99.90;;;;;;5035258;28;20044;-92
2023/01/23 01:08:58;;;;;;;17.95;8.65;;;2.20;99.90;;;;;;5035992;28;20384;-92
2023/01/23 01:11:24;;;;;;;13.02;8.75;;;2.80;99.90;;;;;;5036498;28;20821;-95
2023/01/23 01:13:50;;;;;;;15.35;8.85;;;3.80;99.90;;;;;;5037459;28;20133;-94
2023/01/23 01:16:18;;;;;;;15.15;9.23;;;1.70;99.90;;;;;;5032051;28;20045;-93
2023/01/23 01:18:44;;;;;;;13.20;9.50;;;5.00;99.90;;;;;;5028852;28;20047;-93
2023/01/23 01:21:13;;;;;;;17.35;9.45;;;2.20;99.90;;;;;;5032722;28;20492;-93
2023/01/23 01:23:40;;;;;;;13.13;9.70;;;2.60;99.90;;;;;;5023979;28;20055;-93
2023/01/23 01:26:06;;;;;;;15.93;9.63;;;2.40;99.90;;;;;;5036013;28;20065;-94
2023/01/23 01:28:34;;;;;;;16.23;10.00;;;2.10;99.90;;;;;;5031793;28;20136;-93
2023/01/23 01:31:09;;;;;;;18.05;10.50;;;2.00;99.90;;;;;;5031325;28;20057;-92
2023/01/23 01:33:36;;;;;;;15.07;10.13;;;2.20;99.90;;;;;;5035089;28;20177;-92
2023/01/23 01:36:02;;;;;;;19.15;10.60;;;2.20;99.90;;;;;;5034191;28;20044;-92
2023/01/23 01:38:28;;;;;;;16.92;10.70;;;2.40;99.90;;;;;;5032041;28;20048;-93
2023/01/23 01:40:56;;;;;;;20.00;10.77;;;4.10;99.90;;;;;;5025863;28;20048;-93
2023/01/23 01:43:24;;;;;;;16.70;10.10;;;2.00;99.90;;;;;;5034051;28;20087;-93
2023/01/23 01:46:05;;;;;;;15.15;9.70;;;2.10;99.90;;;;;;5035186;28;20049;-91
2023/01/23 01:48:42;;;;;;;17.42;10.10;;;2.30;99.90;;;;;;5034743;28;20048;-93
2023/01/23 01:51:25;;;;;;;19.23;10.77;;;2.60;99.90;;;;;;5034679;28;20041;-94
2023/01/23 01:54:01;;;;;;;14.20;10.10;;;2.40;99.90;;;;;;5017572;28;20048;-93
2023/01/23 01:56:30;;;;;;;18.55;11.38;;;2.20;99.90;;;;;;5013885;28;20049;-94
2023/01/23 01:58:57;;;;;;;18.75;10.52;;;2.20;99.90;;;;;;5026415;28;20506;-93
2023/01/23 02:01:23;;;;;;;17.80;10.38;;;2.30;99.90;;;;;;5030138;28;20041;-93
2023/01/23 02:03:50;;;;;;;18.35;11.75;;;2.10;99.90;;;;;;5014894;28;20077;-92
2023/01/23 02:06:19;;;;;;;16.48;10.65;;;2.20;99.90;;;;;;5049564;28;20095;-93
2023/01/23 02:09:09;;;;;;;21.70;11.07;;;2.10;99.90;;;;;;5047465;28;20088;-94
2023/01/23 02:11:36;;;;;;;16.17;10.60;;;2.20;99.90;;;;;;5027399;28;20049;-92
2023/01/23 02:14:01;;;;;;;19.52;11.45;;;2.60;99.90;;;;;;5033181;28;20391;-93
2023/01/23 02:16:31;;;;;;;19.45;11.30;;;2.40;99.90;;;;;;5032080;28;20045;-93
2023/01/23 02:19:00;;;;;;;16.50;10.32;;;2.30;99.90;;;;;;5034866;28;20446;-93
2023/01/23 02:21:27;;;;;;;16.95;10.32;;;2.30;99.90;;;;;;5038791;28;20045;-94
2023/01/23 02:24:03;;;;;;;19.75;10.98;;;2.00;99.90;;;;;;5031592;28;20176;-91
2023/01/23 02:26:35;;;;;;;16.80;10.35;;;3.30;99.90;;;;;;5016910;28;20140;-94
2023/01/23 02:29:02;;;;;;;16.25;10.43;;;2.40;99.90;;;;;;5034313;28;20078;-93
2023/01/23 02:31:28;;;;;;;17.38;10.35;;;2.20;99.90;;;;;;5034499;28;20055;-93
2023/01/23 02:33:55;;;;;;;15.75;10.50;;;2.00;99.90;;;;;;5034926;28;20045;-94
2023/01/23 02:36:24;;;;;;;17.80;10.57;;;1.60;99.90;;;;;;5021296;28;20480;-92
2023/01/23 02:38:56;;;;;;;18.27;10.98;;;2.10;99.90;;;;;;5027851;28;20420;-92
2023/01/23 02:41:30;;;;;;;16.00;10.80;;;2.00;99.90;;;;;;5024972;28;20041;-93
2023/01/23 02:43:59;;;;;;;20.42;12.20;;;2.40;99.90;;;;;;5034846;28;20075;-93
2023/01/23 02:46:25;;;;;;;19.23;10.48;;;1.80;99.90;;;;;;5020686;28;20037;-93
2023/01/23 02:48:54;;;;;;;19.02;10.82;;;2.30;99.90;;;;;;5017852;28;20045;-94
2023/01/23 02:51:21;;;;;;;17.70;11.52;;;2.30;99.90;;;;;;5030721;28;20053;-93
2023/01/23 02:53:47;;;;;;;15.63;10.10;;;2.30;99.90;;;;;;5027821;28;20041;-93
2023/01/23 02:56:13;;;;;;;16.88;11.30;;;2.70;99.90;;;;;;5025235;28;20570;-92
2023/01/23 03:01:25;;;;;;;17.92;10.57;;;2.20;99.90;;;;;;5049676;28;20120;-93
2023/01/23 03:03:54;;;;;;;17.50;10.25;;;2.10;99.90;;;;;;5031842;28;20091;-91
2023/01/23 03:06:20;;;;;;;15.20;10.20;;;2.20;99.90;;;;;;5048341;28;20047;-93
2023/01/23 03:08:46;;;;;;;17.15;10.68;;;1.80;99.90;;;;;;5033428;28;20048;-93
2023/01/23 03:11:13;;;;;;;15.20;10.88;;;2.30;99.90;;;;;;5028884;28;20088;-93
2023/01/23 03:13:39;;;;;;;16.83;10.60;;;2.30;99.90;;;;;;5014082;28;20394;-93
2023/01/23 03:16:06;;;;;;;16.42;9.93;;;2.30;99.90;;;;;;5021982;28;20116;-93
2023/01/23 03:18:32;;;;;;;17.45;10.68;;;3.10;99.90;;;;;;5030800;28;20048;-92
2023/01/23 03:21:05;;;;;;;19.10;10.75;;;2.50;99.90;;;;;;5032782;28;20059;-93
2023/01/23 03:23:32;;;;;;;15.18;10.38;;;2.80;99.90;;;;;;5032948;28;20657;-95
2023/01/23 03:26:02;;;;;;;16.67;10.80;;;2.30;99.90;;;;;;5032995;28;20096;-93
2023/01/23 03:31:13;;;;;;;15.40;10.90;;;2.60;99.90;;;;;;5039179;28;20052;-93
2023/01/23 03:33:42;;;;;;;19.55;10.75;;;2.40;99.90;;;;;;5029758;28;20055;-92
2023/01/23 03:36:09;;;;;;;17.60;10.43;;;2.40;99.90;;;;;;5020797;28;20045;-93
2023/01/23 03:38:35;;;;;;;21.08;11.10;;;3.60;99.90;;;;;;5022385;28;20041;-93
2023/01/23 03:43:49;;;;;;;17.80;10.52;;;2.50;99.90;;;;;;5047989;28;20045;-93
2023/01/23 03:46:15;;;;;;;14.18;9.82;;;2.30;99.90;;;;;;5028660;28;20041;-93
2023/01/23 03:48:43;;;;;;;18.70;10.27;;;2.40;99.90;;;;;;5024065;28;20051;-91
2023/01/23 03:51:11;;;;;;;18.30;10.10;;;2.20;99.90;;;;;;5049921;28;20059;-92
2023/01/23 03:53:37;;;;;;;16.92;10.35;;;2.20;99.90;;;;;;5032699;28;20064;-92
2023/01/23 03:56:03;;;;;;;18.95;9.98;;;2.30;99.90;;;;;;5022917;28;20061;-92
2023/01/23 03:58:29;;;;;;;21.38;10.68;;;2.40;99.90;;;;;;5041160;28;20045;-92
2023/01/23 04:00:55;;;;;;;17.92;10.75;;;2.20;99.90;;;;;;5032528;28;20091;-92
2023/01/23 04:03:21;;;;;;;19.50;11.05;;;2.40;99.90;;;;;;5031863;28;20098;-91
2023/01/23 04:05:46;;;;;;;14.55;10.45;;;2.50;99.90;;;;;;5033353;28;20041;-92
2023/01/23 04:08:12;;;;;;;24.13;10.90;;;2.30;99.90;;;;;;5029988;28;20052;-92
2023/01/23 04:10:38;;;;;;;15.85;10.15;;;2.30;99.90;;;;;;5032526;28;20048;-92
2023/01/23 04:13:03;;;;;;;15.18;9.85;;;2.10;99.90;;;;;;5028156;28;20044;-91
2023/01/23 04:15:32;;;;;;;17.10;10.93;;;2.40;99.90;;;;;;5021744;28;20313;-92
2023/01/23 04:17:57;;;;;;;21.13;11.18;;;2.30;99.90;;;;;;5027702;28;20049;-92
2023/01/23 04:20:23;;;;;;;14.40;9.88;;;2.50;99.90;;;;;;5029133;28;20045;-93
2023/01/23 04:22:52;;;;;;;18.10;10.10;;;2.30;99.90;;;;;;5030453;28;20508;-92
2023/01/23 04:25:18;;;;;;;17.73;11.07;;;1.70;99.90;;;;;;5033399;28;20501;-92
2023/01/23 04:27:43;;;;;;;19.92;10.90;;;2.50;99.90;;;;;;5032861;28;20044;-92
2023/01/23 04:30:18;;;;;;;18.45;10.50;;;3.60;99.90;;;;;;5014669;28;20129;-91
2023/01/23 04:32:44;;;;;;;17.02;10.40;;;3.60;99.90;;;;;;5032376;28;20057;-92
2023/01/23 04:35:09;;;;;;;15.90;10.68;;;1.60;99.90;;;;;;5032681;28;20052;-92
2023/01/23 04:37:35;;;;;;;17.05;10.70;;;2.20;99.90;;;;;;5033078;28;20045;-92
2023/01/23 04:40:04;;;;;;;14.73;10.43;;;3.60;99.90;;;;;;5032425;28;20045;-91
2023/01/23 04:42:30;;;;;;;16.35;10.18;;;2.60;99.90;;;;;;5033007;28;20094;-91
2023/01/23 04:44:56;;;;;;;16.38;10.73;;;2.10;99.90;;;;;;5017601;28;20041;-92
2023/01/23 04:47:21;;;;;;;16.65;10.25;;;1.10;99.90;;;;;;5013706;28;20087;-92
2023/01/23 04:49:50;;;;;;;18.38;9.80;;;2.20;99.90;;;;;;5032424;28;20098;-93
2023/01/23 04:52:41;;;;;;;16.77;10.43;;;3.90;99.90;;;;;;5031987;28;20049;-91
2023/01/23 04:55:22;;;;;;;14.70;9.60;;;3.50;99.90;;;;;;5043981;28;20053;-93
2023/01/23 04:57:50;;;;;;;20.33;10.40;;;2.30;99.90;;;;;;5023868;28;20041;-90
2023/01/23 05:00:27;;;;;;;15.75;10.65;;;1.60;99.90;;;;;;5013226;28;20112;-92
2023/01/23 05:03:09;;;;;;;15.93;10.65;;;2.40;99.90;;;;;;5023375;28;20045;-92
2023/01/23 05:05:46;;;;;;;15.88;10.07;;;3.30;99.90;;;;;;5031429;28;20037;-91
2023/01/23 05:08:17;;;;;;;16.13;10.23;;;1.80;99.90;;;;;;5031950;28;20049;-91
2023/01/23 05:10:43;;;;;;;13.88;10.20;;;2.20;99.90;;;;;;5031263;28;20037;-91
2023/01/23 05:13:12;;;;;;;18.77;10.57;;;3.30;99.90;;;;;;5030604;28;20072;-92
2023/01/23 05:15:37;;;;;;;15.32;9.43;;;2.00;99.90;;;;;;5031860;28;20045;-93
2023/01/23 05:18:03;;;;;;;17.95;11.32;;;2.20;99.90;;;;;;5019201;28;20160;-92
2023/01/23 05:20:29;;;;;;;16.75;10.43;;;2.30;99.90;;;;;;5044197;28;20041;-92
2023/01/23 05:22:54;;;;;;;15.32;10.50;;;3.40;99.90;;;;;;5028381;28;20411;-92
2023/01/23 05:25:26;;;;;;;18.30;11.35;;;3.30;99.90;;;;;;5027588;28;20041;-90
2023/01/23 05:27:52;;;;;;;16.17;10.88;;;2.40;99.90;;;;;;5041224;28;20052;-92
2023/01/23 05:30:21;;;;;;;17.92;10.50;;;2.40;99.90;;;;;;5047835;28;20417;-92
2023/01/23 05:32:50;;;;;;;19.33;9.80;;;2.50;99.90;;;;;;5047542;28;20435;-92
2023/01/23 05:35:16;;;;;;;18.70;11.15;;;2.20;99.90;;;;;;5044516;28;20118;-91
2023/01/23 05:37:50;;;;;;;18.17;10.95;;;2.60;99.90;;;;;;5020767;28;20056;-92
2023/01/23 05:40:16;;;;;;;14.55;10.25;;;2.10;99.90;;;;;;5031107;28;20056;-93
2023/01/23 05:42:45;;;;;;;17.90;10.85;;;2.40;99.90;;;;;;5020872;28;20156;-92
2023/01/23 05:45:17;;;;;;;18.30;10.18;;;2.20;99.90;;;;;;5032440;28;20159;-91
2023/01/23 05:47:42;;;;;;;17.75;11.05;;;2.60;99.90;;;;;;5022633;28;20045;-93
2023/01/23 05:50:14;;;;;;;17.25;10.73;;;2.50;99.90;;;;;;5044040;28;20100;-91
2023/01/23 05:52:39;;;;;;;19.52;11.20;;;2.40;99.90;;;;;;5026174;28;20044;-91
2023/01/23 05:55:06;;;;;;;17.75;10.65;;;2.40;99.90;;;;;;5015620;28;20045;-91
2023/01/23 05:57:35;;;;;;;18.88;10.95;;;2.70;99.90;;;;;;5026493;28;20056;-92
2023/01/23 06:00:03;;;;;;;17.95;10.80;;;2.60;99.90;;;;;;5034124;28;20100;-91
2023/01/23 06:02:29;;;;;;;15.55;10.43;;;2.50;99.90;;;;;;5034242;28;20049;-92
2023/01/23 06:04:55;;;;;;;16.08;11.50;;;4.70;99.90;;;;;;5033650;28;20102;-92
2023/01/23 06:07:20;;;;;;;17.90;12.13;;;3.60;99.90;;;;;;5030697;28;20037;-91
2023/01/23 06:09:46;;;;;;;17.77;11.15;;;2.90;99.90;;;;;;5023759;28;20072;-90
2023/01/23 06:12:12;;;;;;;16.58;10.70;;;2.20;99.90;;;;;;5032748;28;20148;-91
2023/01/23 06:14:38;;;;;;;17.83;10.65;;;3.20;99.90;;;;;;5032333;28;20057;-91
2023/01/23 06:17:05;;;;;;;17.42;10.55;;;2.30;99.90;;;;;;5031761;28;20127;-91
2023/01/23 06:19:30;;;;;;;20.13;11.02;;;2.30;99.90;;;;;;5026386;28;20044;-91
2023/01/23 06:21:57;;;;;;;18.17;10.93;;;2.20;99.90;;;;;;5033264;28;20037;-92
2023/01/23 06:24:23;;;;;;;16.45;10.63;;;3.20;99.90;;;;;;5031948;28;20128;-90
2023/01/23 06:26:49;;;;;;;13.40;10.32;;;2.90;99.90;;;;;;5032832;28;20084;-91
2023/01/23 06:29:15;;;;;;;17.27;10.48;;;2.30;99.90;;;;;;5028397;28;20041;-92
2023/01/23 06:31:40;;;;;;;14.30;10.00;;;2.50;99.90;;;;;;5014261;28;20049;-91
2023/01/23 06:34:06;;;;;;;16.58;10.50;;;2.40;99.90;;;;;;5024640;28;20048;-92
2023/01/23 06:36:33;;;;;;;19.85;11.00;;;2.20;99.90;;;;;;4998203;28;20075;-93
2023/01/23 06:38:59;;;;;;;16.85;10.98;;;2.40;99.90;;;;;;5029893;28;20131;-93
2023/01/23 06:41:24;;;;;;;14.57;10.43;;;2.30;99.90;;;;;;5033359;28;20147;-92
2023/01/23 06:43:50;;;;;;;15.50;10.10;;;2.10;99.90;;;;;;5033423;28;20124;-93
2023/01/23 06:46:16;;;;;;;15.85;9.77;;;4.10;99.90;;;;;;5016514;28;20474;-93
2023/01/23 06:48:41;;;;;;;15.50;10.68;;;2.50;99.90;;;;;;5015590;28;20045;-94
2023/01/23 06:51:07;;;;;;;16.40;9.77;;;2.50;99.90;;;;;;5014379;28;20049;-92
2023/01/23 06:53:33;;;;;;;15.73;9.82;;;2.40;99.90;;;;;;5014970;28;20045;-93
2023/01/23 06:56:04;;;;;;;16.92;10.88;;;2.40;99.90;;;;;;5014783;28;20049;-93
2023/01/23 06:58:30;;;;;;;19.90;10.57;;;2.50;99.90;;;;;;5014489;28;20041;-93
2023/01/23 07:00:56;;;;;;;17.88;10.93;;;2.20;99.90;;;;;;5029469;28;20041;-93
2023/01/23 07:03:22;;;;;;;14.75;10.15;;;2.50;99.90;;;;;;5050560;28;20090;-93
2023/01/23 07:05:48;;;;;;;18.85;11.23;;;2.40;99.90;;;;;;5033688;28;20135;-93
2023/01/23 07:08:14;;;;;;;17.85;10.32;;;2.20;99.90;;;;;;5033312;28;20049;-92
2023/01/23 07:10:40;;;;;;;14.63;9.77;;;2.50;99.90;;;;;;5030174;28;20041;-94
2023/01/23 07:13:10;;;;;;;16.00;10.32;;;2.50;99.90;;;;;;5014180;28;20056;-94
2023/01/23 07:15:36;;;;;;;18.13;11.40;;;2.10;99.90;;;;;;5014805;28;20049;-93
2023/01/23 07:18:02;;;;;;;18.08;10.75;;;2.30;99.90;;;;;;5030769;28;20044;-92
2023/01/23 07:20:28;;;;;;;18.83;11.15;;;2.30;99.90;;;;;;5034190;28;20102;-93
2023/01/23 07:22:55;;;;;;;15.13;10.60;;;2.40;99.90;;;;;;5033382;28;20033;-91
2023/01/23 07:25:21;;;;;;;22.38;11.43;;;1.60;99.90;;;;;;5034489;28;20040;-92
2023/01/23 07:27:50;;;;;;;14.18;10.55;;;2.30;99.90;;;;;;5035250;28;20049;-94
2023/01/23 07:30:16;;;;;;;16.23;10.32;;;2.20;99.90;;;;;;5058150;28;20037;-92
2023/01/23 07:32:43;;;;;;;18.25;11.52;;;2.70;99.90;;;;;;5032208;28;20053;-92
2023/01/23 07:35:14;;;;;;;18.63;11.30;;;4.10;99.90;;;;;;5034262;28;20041;-91
2023/01/23 07:37:39;;;;;;;18.92;11.15;;;2.40;99.90;;;;;;5036987;28;20058;-93
2023/01/23 07:40:06;;;;;;;18.80;11.07;;;2.40;99.90;;;;;;5055922;28;20445;-94
2023/01/23 07:42:35;;;;;;;17.33;11.45;;;2.30;99.90;;;;;;5052336;28;20041;-92
2023/01/23 07:45:00;;;;;;;16.35;10.90;;;2.30;99.90;;;;;;5031604;28;20480;-92
2023/01/23 07:47:26;;;;;;;16.35;10.73;;;2.30;99.90;;;;;;5032955;28;20104;-92
2023/01/23 07:49:52;;;;;;;14.00;10.68;;;2.20;99.90;;;;;;5045401;28;20442;-91
2023/01/23 07:52:17;;;;;;;18.13;10.40;;;2.10;99.90;;;;;;5012838;28;20046;-92
2023/01/23 07:54:46;;;;;;;17.35;10.30;;;2.10;99.90;;;;;;5013430;28;20046;-92
2023/01/23 07:57:12;;;;;;;19.05;10.70;;;2.40;99.90;;;;;;5013268;28;20049;-89
2023/01/23 07:59:37;;;;;;;18.77;11.23;;;2.60;99.90;;;;;;5012580;28;20045;-90
2023/01/23 08:02:03;;;;;;;15.65;9.73;;;2.60;99.90;;;;;;5023838;28;20065;-93
2023/01/23 08:04:29;;;;;;;16.92;10.35;;;2.50;99.90;;;;;;5033067;28;20041;-93
2023/01/23 08:06:54;;;;;;;13.30;10.23;;;2.00;99.90;;;;;;5031770;28;20182;-94
2023/01/23 08:09:20;;;;;;;17.08;10.75;;;2.40;99.90;;;;;;5030273;28;20041;-94
2023/01/23 08:11:45;;;;;;;16.65;10.80;;;2.60;99.90;;;;;;5030926;28;20040;-93
2023/01/23 08:14:11;;;;;;;18.08;10.20;;;2.60;99.90;;;;;;5032310;28;20068;-93
2023/01/23 08:16:37;;;;;;;16.05;10.20;;;2.40;99.90;;;;;;5045270;28;20092;-92
2023/01/23 08:19:07;;;;;;;15.20;10.85;;;2.60;99.90;;;;;;5012400;28;20033;-93
2023/01/23 08:21:33;;;;;;;16.40;10.30;;;2.50;99.90;;;;;;5012429;28;20139;-91
2023/01/23 08:24:01;;;;;;;18.33;11.43;;;2.10;99.90;;;;;;5011716;28;20381;-92
2023/01/23 08:26:27;;;;;;;15.23;10.00;;;2.70;99.90;;;;;;5013019;28;20049;-91
2023/01/23 08:28:53;;;;;;;18.30;11.20;;;2.30;99.90;;;;;;5012734;28;20041;-91
2023/01/23 08:31:18;;;;;;;18.25;10.32;;;2.40;99.90;;;;;;5021982;28;20061;-91
2023/01/23 08:33:44;;;;;;;14.27;10.00;;;2.50;99.90;;;;;;5032518;28;20053;-91
2023/01/23 08:36:11;;;;;;;19.38;10.75;;;2.40;99.90;;;;;;5032763;28;20076;-90
2023/01/23 08:38:37;;;;;;;18.58;10.73;;;2.50;99.90;;;;;;5032142;28;20041;-91
2023/01/23 08:41:04;;;;;;;14.57;9.93;;;2.60;99.90;;;;;;5031610;28;20049;-90
2023/01/23 08:43:30;;;;;;;13.88;9.85;;;2.60;99.90;;;;;;5032273;28;20044;-90
2023/01/23 08:45:57;;;;;;;15.18;9.75;;;;;;;;;;5030952;28;20510;-90
2023/01/23 08:48:23;;;;;;;13.25;9.77;;;;;;;;;;5030360;28;20041;-88
2023/01/23 08:50:50;;;;;;;12.23;9.38;;;;;;;;;;5031366;28;20053;-89
2023/01/23 08:53:15;;;;;;;13.38;9.63;;;;;;;;;;5031783;28;20052;-89
2023/01/23 08:55:41;;;;;;;16.83;10.35;;;;;;;;;;5021466;28;20045;-89
2023/01/23 08:58:09;;;;;;;12.85;9.15;;;;;;;;;;5011067;28;20138;-87
2023/01/23 09:00:35;;;;;;;13.70;10.00;;;;;;;;;;5016126;28;20060;-88
2023/01/23 09:03:04;;;;;;;13.95;9.65;;;;;;;;;;5028709;28;20045;-88
2023/01/23 09:05:30;;;;;;;14.93;9.35;;;;;;;;;;5025362;28;20499;-88
2023/01/23 09:07:57;;;;;;;11.80;8.73;;;;;;;;;;5014900;28;20052;-88
2023/01/23 09:10:23;;;;;;;12.25;8.95;;;;;;;;;;5029702;28;20056;-89
2023/01/23 09:12:56;;;;;;;12.85;8.90;;;;;;;;;;5025729;28;20136;-86
2023/01/23 09:15:22;;;;;;;13.45;8.95;;;;;;;;;;5050291;28;20056;-88
2023/01/23 09:17:49;;;;;;;15.73;8.93;;;;;;;;;;5040787;28;20045;-88
2023/01/23 09:20:15;;;;;;;12.18;9.02;;;;;;;;;;5049102;28;20057;-87
2023/01/23 09:22:41;;;;;;;15.15;9.35;;;;;;;;;;5050152;28;20505;-86
2023/01/23 09:25:07;;;;;;;12.73;9.18;;;;;;;;;;5031165;28;20052;-90
2023/01/23 09:27:33;;;;;;;13.38;8.10;;;;;;;;;;5032106;28;20056;-90
2023/01/23 09:29:59;;;;;;;13.52;9.25;;;;;;;;;;5044894;28;20141;-91
2023/01/23 09:32:25;;;;;;;11.45;8.32;;;;;;;;;;5052327;28;20491;-93
2023/01/23 09:34:53;;;;;;;10.20;8.25;;;;;;;;;;5033274;28;20061;-91
2023/01/23 09:37:19;;;;;;;9.00;7.78;;;;;;;;;;5035336;28;20048;-90
2023/01/23 09:39:46;;;;;;;10.68;8.10;;;;;;;;;;5034022;28;20156;-92
2023/01/23 09:42:28;;;;;;;11.55;7.88;;;;;;;;;;5050319;28;20126;-89
2023/01/23 09:44:54;;;;;;;;;;;;;;;;;;5034798;28;20040;-91
2023/01/23 09:47:26;;;;;;;13.77;8.48;;;;;;;;;;5030711;28;20012;-90
2023/01/23 09:49:59;;;;;;;8.63;7.63;;;;;;;;;;5047948;28;20080;-91
2023/01/23 09:52:36;;;;;;;9.85;8.20;;;;;;;;;;5048494;28;20064;-90
2023/01/23 09:55:10;;;;;;;11.15;7.85;;;;;;;;;;5049607;28;20563;-91
2023/01/23 09:57:44;;;;;;;12.48;7.88;;;;;;;;;;5022570;28;20041;-91
2023/01/23 10:00:10;;;;;;;12.13;7.10;;;;;;;;;;5021427;28;20053;-92
2023/01/23 10:02:36;;;;;;;13.93;8.32;;;;;;;;;;5047621;28;20049;-91
2023/01/23 10:05:02;;;;;;;12.07;8.82;;;;;;;;;;5030864;28;20526;-90
2023/01/23 10:07:31;;;;;;;9.88;7.70;;;;;;;;;;5035152;28;20056;-91
2023/01/23 10:10:16;;;;;;;10.65;7.68;;;;;;;;;;5035494;28;20191;-90
2023/01/23 10:12:54;;;;;;;8.70;7.25;;;;;;;;;;5034108;28;20032;-90
2023/01/23 10:15:26;;;;;;;12.05;7.88;;;;;;;;;;5032750;28;20045;-90
2023/01/23 10:17:55;;;;;;;9.77;7.43;;;;;;;;;;5032911;28;20080;-90
2023/01/23 10:20:30;;;;;;;9.88;7.57;;;;;;;;;;5033956;28;20059;-90
2023/01/23 10:23:08;;;;;;;11.10;7.97;;;;;;;;;;5034626;28;20037;-91
2023/01/23 10:25:36;;;;;;;9.30;6.88;;;;;;;;;;5034795;28;20048;-92
2023/01/23 10:28:25;;;;;;;10.20;7.88;;;;;;;;;;5033781;28;20047;-93
2023/01/23 10:30:55;;;;;;;9.00;7.30;;;;;;;;;;5051000;28;20503;-91
2023/01/23 10:33:33;;;;;;;9.35;7.50;;;;;;;;;;5034762;28;20045;-92
2023/01/23 10:36:13;;;;;;;9.57;7.18;;;;;;;;;;5034110;28;20128;-90
2023/01/23 10:38:43;;;;;;;9.93;7.40;;;;;;;;;;5031463;28;20049;-92
2023/01/23 10:41:13;;;;;;;10.52;7.15;;;;;;;;;;5015219;28;20042;-92
2023/01/23 10:43:46;;;;;;;8.98;7.57;;;;;;;;;;5028788;28;20055;-89
2023/01/23 10:46:34;;;;;;;10.52;7.30;;;;;;;;;;5035102;28;20102;-94
2023/01/23 10:49:01;;;;;;;8.90;7.80;;;;;;;;;;5024185;28;20078;-91
2023/01/23 10:51:39;;;;;;;8.93;7.18;;;;;;;;;;5031811;28;20052;-84
2023/01/23 10:54:08;;;;;;;9.50;7.32;;;;;;;;;;5038378;28;20053;-86
2023/01/23 10:56:35;;;;;;;13.30;7.15;;;;;;;;;;5047479;28;20086;-93
2023/01/23 10:59:03;;;;;;;8.70;7.22;;;;;;;;;;5032702;28;20123;-88
2023/01/23 11:01:30;;;;;;;8.25;7.18;;;;;;;;;;5032099;28;20041;-89
2023/01/23 11:03:56;;;;;;;8.35;7.30;;;;;;;;;;5046361;28;20051;-90
2023/01/23 11:06:24;;;;;;;8.45;6.85;;;;;;;;;;5028640;28;20083;-89
2023/01/23 11:08:55;;;;;;;8.75;7.32;;;;;;;;;;5047363;28;20068;-88
2023/01/23 11:11:25;;;;;;;8.38;6.90;;;;;;;;;;5047073;28;20056;-90
2023/01/23 11:14:03;;;;;;;9.35;6.97;;;;;;;;;;5030226;28;20045;-88
2023/01/23 11:16:30;;;;;;;8.85;6.97;;;;;;;;;;5048326;28;20071;-88
2023/01/23 11:19:05;;;;;;;10.18;7.40;;;;;;;;;;5044992;28;20053;-88
2023/01/23 11:21:49;;;;;;;10.15;7.32;;;;;;;;;;5029553;28;20044;-87
2023/01/23 11:24:24;;;;;;;7.97;7.18;;;;;;;;;;5044027;28;20577;-89
2023/01/23 11:27:04;;;;;;;10.25;7.07;;;;;;;;;;5045312;28;20063;-87
2023/01/23 11:29:42;;;;;;;9.25;7.10;;;;;;;;;;5048524;28;20109;-88
2023/01/23 11:32:12;;;;;;;8.75;7.00;;;;;;;;;;5047702;28;20053;-87
2023/01/23 11:34:42;;;;;;;11.65;7.65;;;;;;;;;;5029922;28;20056;-89
2023/01/23 11:37:11;;;;;;;11.38;7.68;;;;;;;;;;5039011;28;20059;-87
2023/01/23 11:39:52;;;;;;;9.93;6.88;;;;;;;;;;5042448;28;20049;-87
2023/01/23 11:42:24;;;;;;;9.57;7.35;;;;;;;;;;5030758;28;20478;-89
2023/01/23 11:44:50;;;;;;;10.85;8.27;;;;;;;;;;5047452;28;20053;-88
2023/01/23 11:47:19;;;;;;;10.40;7.47;;;;;;;;;;5012008;28;20148;-90
2023/01/23 11:50:04;;;;;;;10.02;7.60;;;;;;;;;;5028372;28;20042;-89
2023/01/23 11:52:30;;;;;;;10.23;8.20;;;;;;;;;;5011527;28;20138;-88
2023/01/23 11:54:58;;;;;;;10.00;8.05;;;;;;;;;;5022487;28;20045;-89
2023/01/23 11:57:37;;;;;;;10.07;7.60;;;;;;;;;;5031554;28;20059;-89
2023/01/23 12:00:21;;;;;;;9.88;7.43;;;;;;;;;;5048211;28;20052;-88
2023/01/23 12:02:47;;;;;;;10.20;7.55;;;;;;;;;;5046849;28;20077;-88
2023/01/23 12:05:24;;;;;;;9.88;7.47;;;;;;;;;;5047518;28;20773;-88
2023/01/23 12:08:12;;;;;;;10.07;7.70;;;;;;;;;;5047534;28;20131;-87
2023/01/23 12:10:41;;;;;;;10.70;7.93;;;;;;;;;;5032441;28;20078;-89
2023/01/23 12:13:26;;;;;;;9.38;8.07;;;;;;;;;;5048367;28;20072;-89
2023/01/23 12:16:02;;;;;;;9.43;7.57;;;;;;;;;;5032710;28;20094;-90
2023/01/23 12:18:37;;;;;;;10.75;8.05;;;;;;;;;;5048308;28;20041;-89
2023/01/23 12:21:22;;;;;;;10.90;8.63;;;;;;;;;;5028150;28;20052;-89
2023/01/23 12:23:54;;;;;;;11.05;8.20;;;;;;;;;;5028110;28;20205;-89
2023/01/23 12:26:21;;;;;;;9.98;7.55;;;;;;;;;;5037361;28;20184;-89
2023/01/23 12:29:04;;;;;;;10.48;7.40;;;;;;;;;;5027387;28;20048;-89
2023/01/23 12:31:33;;;;;;;13.70;7.95;;;;;;;;;;5028864;28;20358;-89
2023/01/23 12:34:18;;;;;;;11.35;7.88;;;;;;;;;;5028545;28;20064;-89
2023/01/23 12:36:46;;;;;;;9.43;7.53;;;;;;;;;;5041241;28;20048;-88
2023/01/23 12:39:34;;;;;;;10.95;8.40;;;;;;;;;;5031242;28;20045;-90
2023/01/23 12:42:02;;;;;;;11.68;7.93;;;;;;;;;;5024474;28;20111;-89
2023/01/23 12:44:42;;;;;;;11.20;8.23;;;;;;;;;;5011599;28;20056;-90
2023/01/23 12:47:12;;;;;;;9.80;8.05;;;;;;;;;;5019562;28;20052;-87
2023/01/23 12:49:44;;;;;;;10.50;7.93;;;;;;;;;;5028795;28;20045;-88
2023/01/23 12:52:19;;;;;;;10.30;8.30;;;;;;;;;;5014978;28;20107;-92
2023/01/23 12:54:47;;;;;;;12.73;8.40;;;;;;;;;;5015598;28;20132;-92
2023/01/23 12:57:13;;;;;;;10.88;7.65;;;;;;;;;;5033548;28;20059;-92
2023/01/23 12:59:54;;;;;;;11.73;8.38;;;;;;;;;;5036349;28;20146;-92
2023/01/23 13:02:32;;;;;;;10.00;7.32;;;;;;;;;;5035517;28;20126;-92
2023/01/23 13:05:07;;;;;;;11.48;8.57;;;;;;;;;;5032232;28;20037;-92
2023/01/23 13:07:47;;;;;;;10.95;8.10;;;;;;;;;;5030127;28;20094;-92
2023/01/23 13:13:18;;;;;;;9.80;8.32;;;4.10;99.90;;;;;;5049751;28;20106;-91
2023/01/23 13:16:01;;;;;;;10.65;8.10;;;5.00;99.90;;;;;;5031483;28;20045;-91
2023/01/23 13:18:28;;;;;;;11.02;7.68;;;4.10;99.90;;;;;;5031290;28;20049;-91
2023/01/23 13:23:43;;;;;;;10.88;8.55;;;4.70;99.90;;;;;;5033486;28;20081;-89
2023/01/23 13:26:15;;;;;;;13.63;8.10;;;4.20;99.90;;;;;;5029429;28;20056;-89
2023/01/23 13:28:47;;;;;;;10.30;7.83;;;4.80;99.90;;;;;;5040364;28;20052;-90
2023/01/23 13:31:33;;;;;;;12.05;8.55;;;4.20;99.90;;;;;;5035510;28;20049;-90
2023/01/23 13:33:59;;;;;;;11.27;8.65;;;4.20;99.90;;;;;;5048539;28;20076;-90
2023/01/23 13:36:29;;;;;;;10.52;8.20;;;4.20;99.90;;;;;;5034827;28;20073;-90